14/12/2018 - TD Garden, Boston, MA. Temporada Regular

Boston Celtics - 129

Atlanta Hawks - 108

  • Árbitros: Brian Forte,James Williams,Jonathan Sterling
  • Asistencia: 18624 espectadores
  • Duración del partido: 2:10 horas
  • Número de empates durante el partido: 0
  • Cambios de líder: 2 veces

Dobles-Dobles

Tabla estadísticas

Atlanta Hawks - 108
Jugador Min TC T3 TL +/- rebO rebD reb asis fp rob per tap tr Val ptos
Daniel Hamilton 6:44 1/3 1/1 0/0 8 0 2 2 1 1 0 0 0 0 4 3
Justin Anderson 6:44 0/0 0/0 0/0 8 0 0 0 0 0 0 0 1 0 1 0
Jaylen Adams 4:27 0/0 0/0 0/0 5 0 0 0 1 0 0 0 0 0 1 0
Kevin Huerter 31:06 7/10 5/8 0/0 -9 0 2 2 3 2 3 5 1 0 20 19
John Collins 29:13 2/8 0/0 7/12 -7 7 7 14 1 3 0 5 1 0 11 11
Kent Bazemore 28:56 5/11 2/4 1/1 -22 0 3 3 7 1 2 3 0 0 16 13
Dewayne Dedmon 27:47 4/11 1/5 0/0 -4 3 6 9 2 3 4 1 0 0 16 9
Trae Young 22:37 2/11 0/6 5/6 -26 3 0 3 3 2 0 3 1 0 3 9
DeAndre Bembry 20:33 2/6 1/3 0/0 -29 1 2 3 3 2 0 0 0 0 7 5
Jeremy Lin 17:08 2/6 2/4 2/3 8 1 1 2 4 1 1 2 0 0 8 8
Vince Carter 16:10 5/8 2/3 0/2 -26 0 0 0 0 0 0 0 1 0 8 12
Alex Len 16:06 4/7 1/2 4/6 -13 1 3 4 1 2 0 3 0 0 10 13
Tyler Dorsey 12:29 2/5 1/2 1/2 2 0 2 2 1 2 0 2 0 0 3 6
Total / / / -105 108
Boston Celtics - 129
Jugador Min TC T3 TL +/- rebO rebD reb asis fp rob per tap tr Val ptos
Brad Wanamaker 7:51 1/4 0/1 0/0 -3 0 1 1 0 0 0 0 0 0 0 2
Jayson Tatum 28:33 8/14 2/5 4/5 21 2 1 3 0 3 2 4 1 0 17 22
Marcus Smart 27:28 0/2 0/2 0/0 3 0 1 1 7 4 4 2 0 0 8 0
Terry Rozier 24:53 3/8 2/5 1/1 -8 1 6 7 5 3 3 3 0 0 16 9
Marcus Morris 24:49 7/12 6/8 0/0 30 1 5 6 1 0 1 0 1 0 24 20
Kyrie Irving 23:34 8/15 4/5 4/4 26 1 4 5 5 1 4 4 0 0 27 24
Jaylen Brown 22:00 2/12 0/5 0/0 1 2 4 6 2 3 0 2 1 0 1 4
Daniel Theis 20:58 6/9 2/3 4/4 14 3 4 7 1 4 0 0 1 0 24 18
Gordon Hayward 17:41 7/10 3/3 2/2 21 0 1 1 5 1 1 3 0 0 20 19
Robert Williams 16:24 1/1 0/0 0/0 -14 1 4 5 0 1 0 2 5 0 10 2
Aron Baynes 13:49 2/4 0/1 1/2 19 1 2 3 2 1 0 1 0 0 6 5
Semi Ojeleye 12:00 1/4 0/1 2/2 -5 1 1 2 0 0 0 0 0 0 3 4
Total / / / 105 156



temporada 201819

Calendario por equipos

Selecciona equipo NBA y tipo partidos

enfrentamientos equipos

Selecciona enfrentamiento equipos NBA